createdAt,value
2019-04-03T00:00:11.818Z,14.35
2019-04-03T00:05:09.512Z,13.65
2019-04-03T00:07:38.690Z,13.93
2019-04-03T00:10:08.053Z,14.13
2019-04-03T00:12:37.425Z,13.95
2019-04-03T00:15:08.766Z,14.53
2019-04-03T00:17:38.073Z,14.15
2019-04-03T00:20:09.992Z,14.30
2019-04-03T00:22:39.305Z,13.93
2019-04-03T00:25:08.534Z,14.35
2019-04-03T00:27:37.943Z,13.72
2019-04-03T00:30:07.556Z,14.15
2019-04-03T00:32:36.879Z,13.53
2019-04-03T00:35:07.110Z,14.85
2019-04-03T00:37:37.559Z,15.00
2019-04-03T00:40:07.225Z,15.15
2019-04-03T00:42:36.406Z,14.98
2019-04-03T00:45:06.212Z,15.48
2019-04-03T00:47:35.664Z,17.32
2019-04-03T00:50:06.648Z,17.70
2019-04-03T00:52:36.013Z,18.32
2019-04-03T00:55:05.447Z,17.27
2019-04-03T00:57:34.794Z,17.60
2019-04-03T01:00:07.367Z,20.25
2019-04-03T01:02:37.248Z,19.05
2019-04-03T01:05:07.594Z,18.10
2019-04-03T01:07:36.779Z,18.50
2019-04-03T01:10:06.478Z,17.95
2019-04-03T01:12:35.717Z,18.98
2019-04-03T01:15:06.575Z,19.65
2019-04-03T01:17:35.886Z,19.62
2019-04-03T01:20:06.936Z,20.00
2019-04-03T01:22:37.316Z,19.37
2019-04-03T01:25:09.029Z,19.55
2019-04-03T01:27:38.014Z,20.55
2019-04-03T01:30:07.347Z,20.82
2019-04-03T01:32:36.904Z,20.50
2019-04-03T01:35:09.196Z,20.43
2019-04-03T01:37:38.358Z,20.68
2019-04-03T01:40:07.583Z,21.07
2019-04-03T01:42:36.761Z,20.48
2019-04-03T01:45:06.255Z,20.88
2019-04-03T01:47:35.615Z,21.00
2019-04-03T01:50:05.955Z,20.90
2019-04-03T01:52:36.192Z,20.00
2019-04-03T01:55:06.142Z,21.45
2019-04-03T01:57:36.768Z,21.90
2019-04-03T02:00:07.720Z,22.17
2019-04-03T02:02:38.624Z,23.10
2019-04-03T02:05:08.498Z,23.25
2019-04-03T02:07:37.725Z,22.98
2019-04-03T02:10:18.747Z,23.38
2019-04-03T02:12:50.386Z,22.75
2019-04-03T02:15:21.178Z,24.18
2019-04-03T02:17:49.901Z,24.90
2019-04-03T02:20:19.237Z,24.32
2019-04-03T02:22:48.487Z,23.50
2019-04-03T02:25:17.651Z,22.50
2019-04-03T02:27:46.907Z,22.95
2019-04-03T02:30:16.116Z,22.45
2019-04-03T02:32:45.310Z,22.20
2019-04-03T02:35:14.619Z,22.30
2019-04-03T02:37:44.141Z,23.67
2019-04-03T02:40:14.438Z,22.82
2019-04-03T02:42:43.635Z,23.07
2019-04-03T02:45:13.151Z,22.98
2019-04-03T02:47:42.519Z,22.73
2019-04-03T02:50:14.357Z,22.13
2019-04-03T02:52:42.931Z,22.75
2019-04-03T02:55:12.406Z,22.13
2019-04-03T02:57:41.975Z,22.98
2019-04-03T03:00:11.495Z,23.98
2019-04-03T03:02:44.134Z,24.45
2019-04-03T03:05:11.594Z,24.15
2019-04-03T03:07:40.866Z,23.92
2019-04-03T03:10:10.304Z,24.45
2019-04-03T03:12:39.899Z,24.85
2019-04-03T03:15:12.007Z,23.40
2019-04-03T03:17:40.789Z,23.80
2019-04-03T03:20:11.468Z,24.85
2019-04-03T03:22:41.088Z,23.67
2019-04-03T03:25:11.642Z,24.72
2019-04-03T03:27:42.276Z,24.40
2019-04-03T03:30:32.851Z,24.65
2019-04-03T03:32:43.868Z,24.72
2019-04-03T03:35:17.142Z,24.65
2019-04-03T03:37:44.577Z,23.98
2019-04-03T03:40:16.193Z,24.02
2019-04-03T03:42:44.856Z,23.65
2019-04-03T03:45:18.394Z,24.27
2019-04-03T03:47:45.113Z,24.23
2019-04-03T03:50:14.287Z,24.05
2019-04-03T03:52:43.466Z,25.85
2019-04-03T03:55:12.719Z,25.45
2019-04-03T03:57:41.921Z,25.30
2019-04-03T04:00:12.373Z,26.10
2019-04-03T04:02:44.307Z,26.17
2019-04-03T04:05:12.456Z,26.50
2019-04-03T04:07:41.643Z,26.12
2019-04-03T04:10:11.023Z,27.25
2019-04-03T04:12:41.845Z,25.68
2019-04-03T04:15:11.375Z,25.60
2019-04-03T04:17:40.812Z,26.33
2019-04-03T04:20:10.021Z,26.90
2019-04-03T04:22:39.671Z,26.33
2019-04-03T04:25:09.173Z,25.45
2019-04-03T04:27:39.459Z,26.27
2019-04-03T04:30:08.797Z,27.10
2019-04-03T04:32:37.993Z,28.52
2019-04-03T04:35:10.174Z,27.58
2019-04-03T04:37:40.173Z,28.12
2019-04-03T04:40:08.919Z,29.77
2019-04-03T04:42:38.202Z,28.02
2019-04-03T04:45:07.947Z,28.67
2019-04-03T04:47:37.465Z,30.60
2019-04-03T04:50:06.731Z,29.48
2019-04-03T04:52:35.900Z,30.00
2019-04-03T04:55:05.077Z,30.72
2019-04-03T04:57:34.316Z,31.75
2019-04-03T05:00:06.724Z,32.85
2019-04-03T05:02:36.029Z,32.33
2019-04-03T05:05:08.492Z,32.17
2019-04-03T05:07:37.304Z,37.33
2019-04-03T05:10:06.757Z,35.70
2019-04-03T05:12:38.989Z,31.42
2019-04-03T05:15:08.064Z,30.97
2019-04-03T05:17:37.329Z,32.75
2019-04-03T05:20:06.537Z,32.38
2019-04-03T05:22:35.706Z,33.20
2019-04-03T05:25:05.127Z,33.95
2019-04-03T05:27:34.818Z,32.98
2019-04-03T05:30:06.024Z,33.45
2019-04-03T05:32:35.941Z,32.45
2019-04-03T05:35:06.266Z,32.05
2019-04-03T05:37:35.724Z,31.75
2019-04-03T05:40:06.711Z,31.97
2019-04-03T05:42:36.097Z,31.62
2019-04-03T05:45:09.161Z,32.23
2019-04-03T05:47:39.817Z,31.40
2019-04-03T05:50:09.037Z,32.48
2019-04-03T05:52:38.224Z,31.40
2019-04-03T05:55:09.156Z,31.17
2019-04-03T05:57:38.271Z,30.72
2019-04-03T06:00:07.592Z,31.30
2019-04-03T06:02:37.314Z,32.00
2019-04-03T06:05:07.147Z,31.48
2019-04-03T06:07:36.868Z,31.97
2019-04-03T06:10:07.191Z,31.45
2019-04-03T06:12:37.827Z,29.98
2019-04-03T06:15:09.320Z,29.45
2019-04-03T06:17:38.647Z,31.55
2019-04-03T06:20:11.233Z,30.65
2019-04-03T06:22:39.269Z,31.37
2019-04-03T06:25:12.631Z,31.77
2019-04-03T06:27:50.668Z,34.00
2019-04-03T06:30:19.862Z,35.63
2019-04-03T06:32:49.138Z,37.35
2019-04-03T06:35:19.592Z,33.50
2019-04-03T06:37:48.846Z,33.53
2019-04-03T06:40:18.029Z,35.50
2019-04-03T06:42:47.266Z,35.00
2019-04-03T06:45:16.455Z,33.65
2019-04-03T06:47:45.689Z,33.18
2019-04-03T06:50:17.371Z,33.63
2019-04-03T06:52:45.781Z,32.23
2019-04-03T06:55:14.989Z,32.88
2019-04-03T06:57:44.257Z,33.67
2019-04-03T07:00:13.444Z,33.10
2019-04-03T07:02:42.686Z,34.40
2019-04-03T07:05:11.941Z,35.55
2019-04-03T07:07:41.201Z,34.33
2019-04-03T07:10:18.476Z,33.08
2019-04-03T07:12:41.346Z,33.78
2019-04-03T07:15:10.949Z,37.17
2019-04-03T07:17:40.399Z,35.10
2019-04-03T07:20:14.509Z,35.55
2019-04-03T07:22:42.001Z,34.65
2019-04-03T07:25:11.520Z,36.60
2019-04-03T07:27:42.250Z,33.85
2019-04-03T07:30:11.621Z,34.35
2019-04-03T07:32:41.139Z,34.27
2019-04-03T07:35:10.542Z,33.25
2019-04-03T07:37:39.818Z,34.15
2019-04-03T07:40:09.349Z,33.65
2019-04-03T07:42:38.527Z,32.88
2019-04-03T07:45:07.828Z,33.10
2019-04-03T07:47:37.051Z,34.08
2019-04-03T07:50:10.319Z,33.35
2019-04-03T07:52:38.735Z,34.75
2019-04-03T07:55:08.057Z,31.48
2019-04-03T07:57:38.131Z,30.68
2019-04-03T08:00:08.915Z,30.95
2019-04-03T08:02:38.505Z,30.23
2019-04-03T08:05:17.839Z,29.07
2019-04-03T08:07:47.284Z,28.57
2019-04-03T08:10:16.770Z,28.80
2019-04-03T08:12:46.121Z,28.57
2019-04-03T08:15:15.396Z,27.90
2019-04-03T08:17:44.612Z,27.37
2019-04-03T08:20:13.907Z,24.67
2019-04-03T08:22:43.065Z,24.27
2019-04-03T08:25:12.644Z,23.12
2019-04-03T08:27:42.399Z,22.77
2019-04-03T08:30:11.746Z,24.25
2019-04-03T08:32:40.913Z,25.40
2019-04-03T08:35:20.368Z,23.87
2019-04-03T08:37:42.134Z,22.65
2019-04-03T08:40:11.812Z,24.43
2019-04-03T08:42:41.320Z,23.07
2019-04-03T08:45:10.761Z,22.80
2019-04-03T08:47:40.479Z,24.23
2019-04-03T08:50:10.685Z,21.77
2019-04-03T08:52:40.214Z,22.20
2019-04-03T08:55:13.073Z,22.85
2019-04-03T08:57:40.377Z,22.60
2019-04-03T09:00:09.730Z,23.18
2019-04-03T09:02:38.978Z,22.37
2019-04-03T09:05:08.134Z,21.73
2019-04-03T09:07:37.591Z,22.32
2019-04-03T09:10:07.854Z,23.20
2019-04-03T09:12:38.939Z,22.70
2019-04-03T09:15:09.415Z,21.77
2019-04-03T09:17:39.035Z,22.02
2019-04-03T09:20:08.789Z,22.35
2019-04-03T09:22:38.156Z,23.38
2019-04-03T09:25:07.565Z,23.62
2019-04-03T09:27:37.948Z,21.97
2019-04-03T09:30:10.174Z,23.07
2019-04-03T09:32:39.418Z,24.43
2019-04-03T09:35:08.855Z,22.95
2019-04-03T09:37:38.402Z,22.85
2019-04-03T09:40:08.283Z,22.87
2019-04-03T09:42:37.948Z,21.77
2019-04-03T09:45:07.528Z,21.55
2019-04-03T09:47:37.407Z,20.43
2019-04-03T09:50:07.718Z,20.48
2019-04-03T09:52:41.495Z,20.62
2019-04-03T09:55:07.823Z,19.32
2019-04-03T09:57:36.994Z,19.85
2019-04-03T10:00:10.555Z,19.15
2019-04-03T10:02:39.681Z,20.25
2019-04-03T10:05:08.916Z,20.48
2019-04-03T10:07:38.339Z,20.95
2019-04-03T10:10:08.198Z,20.27
2019-04-03T10:12:37.429Z,19.82
2019-04-03T10:15:07.449Z,20.32
2019-04-03T10:17:38.361Z,19.80
2019-04-03T10:20:09.342Z,19.77
2019-04-03T10:22:38.520Z,19.75
2019-04-03T10:25:08.607Z,19.90
2019-04-03T10:27:37.895Z,19.75
2019-04-03T10:30:09.640Z,19.37
2019-04-03T10:32:38.886Z,18.73
2019-04-03T10:35:08.681Z,19.65
2019-04-03T10:37:38.842Z,18.92
2019-04-03T10:40:10.282Z,18.02
2019-04-03T10:42:39.517Z,18.75
2019-04-03T10:45:08.739Z,18.10
2019-04-03T10:47:42.831Z,18.27
2019-04-03T10:50:09.351Z,17.75
2019-04-03T10:52:38.553Z,17.98
2019-04-03T10:55:07.983Z,17.95
2019-04-03T10:57:37.266Z,17.35
2019-04-03T11:00:12.743Z,17.85
2019-04-03T11:02:42.031Z,17.42
2019-04-03T11:05:11.264Z,17.30
2019-04-03T11:07:40.438Z,16.17
2019-04-03T11:10:09.892Z,16.07
2019-04-03T11:12:39.249Z,16.02
2019-04-03T11:15:10.524Z,17.45
2019-04-03T11:17:39.680Z,17.32
2019-04-03T11:20:10.334Z,17.52
2019-04-03T11:22:42.089Z,15.95
2019-04-03T11:25:13.978Z,15.23
2019-04-03T11:27:44.610Z,15.38
2019-04-03T11:30:17.372Z,14.58
2019-04-03T11:32:45.154Z,14.68
2019-04-03T11:35:15.175Z,15.45
2019-04-03T11:37:44.829Z,13.22
2019-04-03T11:40:14.095Z,11.65
2019-04-03T11:42:43.403Z,11.90
2019-04-03T11:45:12.651Z,11.35
2019-04-03T11:47:43.227Z,12.93
2019-04-03T11:50:12.682Z,12.95
2019-04-03T11:52:43.248Z,11.60
2019-04-03T11:55:12.745Z,12.93
2019-04-03T11:57:42.005Z,10.23
2019-04-03T12:00:13.456Z,9.98
2019-04-03T12:02:44.470Z,9.03
2019-04-03T12:05:19.953Z,9.33
2019-04-03T12:07:46.762Z,9.85
2019-04-03T12:10:15.966Z,9.40
2019-04-03T12:12:45.140Z,9.93
2019-04-03T12:15:16.219Z,10.70
2019-04-03T12:17:45.594Z,11.12
2019-04-03T12:20:15.870Z,10.85
2019-04-03T12:22:45.727Z,11.22
2019-04-03T12:25:15.165Z,11.00
2019-04-03T12:27:46.005Z,11.43
2019-04-03T12:30:16.262Z,10.85
2019-04-03T12:32:49.369Z,11.25
2019-04-03T12:35:16.521Z,11.08
2019-04-03T12:37:46.193Z,11.40
2019-04-03T12:40:15.799Z,10.95
2019-04-03T12:42:45.455Z,10.43
2019-04-03T12:45:18.023Z,10.28
2019-04-03T12:47:46.139Z,10.80
2019-04-03T12:50:15.370Z,12.10
2019-04-03T12:52:45.445Z,10.78
2019-04-03T12:55:15.537Z,11.08
2019-04-03T12:57:45.136Z,11.00
2019-04-03T13:00:14.698Z,10.50
2019-04-03T13:02:44.028Z,10.78
2019-04-03T13:05:13.260Z,10.90
2019-04-03T13:07:45.566Z,10.58
2019-04-03T13:10:13.464Z,10.18
2019-04-03T13:12:42.789Z,9.63
2019-04-03T13:15:12.453Z,10.90
2019-04-03T13:17:44.319Z,11.73
2019-04-03T13:20:14.803Z,13.13
2019-04-03T13:22:44.143Z,10.05
2019-04-03T13:25:13.419Z,9.25
2019-04-03T13:27:42.869Z,9.68
2019-04-03T13:30:13.888Z,9.85
2019-04-03T13:32:43.209Z,9.83
2019-04-03T13:35:15.011Z,8.80
2019-04-03T13:37:43.353Z,9.30
2019-04-03T13:40:12.636Z,9.00
2019-04-03T13:42:41.866Z,9.48
2019-04-03T13:45:11.380Z,9.40
2019-04-03T13:47:42.823Z,9.65
2019-04-03T13:50:11.622Z,9.45
2019-04-03T13:52:43.596Z,9.48
2019-04-03T13:55:12.105Z,10.70
2019-04-03T13:57:41.668Z,10.40
2019-04-03T14:00:20.110Z,9.90
2019-04-03T14:02:45.002Z,9.45
2019-04-03T14:05:12.944Z,9.75
2019-04-03T14:07:42.675Z,8.58
2019-04-03T14:10:12.028Z,8.48
2019-04-03T14:12:44.243Z,7.10
2019-04-03T14:15:12.118Z,7.62
2019-04-03T14:17:53.777Z,8.63
2019-04-03T14:20:13.431Z,8.18
2019-04-03T14:22:42.873Z,8.78
2019-04-03T14:25:19.894Z,7.87
2019-04-03T14:27:43.072Z,8.10
2019-04-03T14:30:12.600Z,8.00
2019-04-03T14:32:44.517Z,8.23
2019-04-03T14:35:40.587Z,7.40
2019-04-03T14:37:43.892Z,7.22
2019-04-03T14:40:14.852Z,6.30
2019-04-03T14:42:44.256Z,6.80
2019-04-03T14:45:15.130Z,6.70
2019-04-03T14:47:55.738Z,6.40
2019-04-03T14:50:25.180Z,6.62
2019-04-03T14:52:54.674Z,6.08
2019-04-03T14:55:24.390Z,5.20
2019-04-03T14:57:55.057Z,5.60
2019-04-03T15:00:28.688Z,5.67
2019-04-03T15:02:56.920Z,5.87
2019-04-03T15:05:26.744Z,6.47
2019-04-03T15:07:57.099Z,6.37
2019-04-03T15:10:26.331Z,6.22
2019-04-03T15:12:55.659Z,6.65
2019-04-03T15:15:27.502Z,7.90
2019-04-03T15:17:56.639Z,8.20
2019-04-03T15:20:26.325Z,8.40
2019-04-03T15:22:56.032Z,8.75
2019-04-03T15:25:25.996Z,10.30
2019-04-03T15:27:55.441Z,13.13
2019-04-03T15:30:25.795Z,14.93
2019-04-03T15:32:55.802Z,14.07
2019-04-03T15:35:25.401Z,12.45
2019-04-03T15:37:54.729Z,10.32
2019-04-03T15:40:25.900Z,10.08
2019-04-03T15:42:55.239Z,11.03
2019-04-03T15:45:25.487Z,10.70
2019-04-03T15:47:57.545Z,11.73
2019-04-03T15:50:28.641Z,15.93
2019-04-03T15:52:58.511Z,13.08
2019-04-03T15:55:27.783Z,13.08
2019-04-03T15:57:57.104Z,10.72
2019-04-03T16:00:26.457Z,12.00
2019-04-03T16:02:55.952Z,13.68
2019-04-03T16:05:25.465Z,11.85
2019-04-03T16:07:55.268Z,9.73
2019-04-03T16:10:25.869Z,10.78
2019-04-03T16:12:55.347Z,12.33
2019-04-03T16:15:24.656Z,11.10
2019-04-03T16:17:54.383Z,14.93
2019-04-03T16:20:23.878Z,11.95
2019-04-03T16:22:54.198Z,10.70
2019-04-03T16:25:23.463Z,10.25
2019-04-03T16:27:53.242Z,10.72
2019-04-03T16:30:22.751Z,11.22
2019-04-03T16:32:52.262Z,17.12
2019-04-03T16:35:21.739Z,13.68
2019-04-03T16:37:53.061Z,10.38
2019-04-03T16:40:22.616Z,10.32
2019-04-03T16:42:53.523Z,11.70
2019-04-03T16:45:23.025Z,10.25
2019-04-03T16:47:52.857Z,8.93
2019-04-03T16:50:22.674Z,7.58
2019-04-03T16:52:53.311Z,7.47
2019-04-03T16:55:22.872Z,8.70
2019-04-03T16:57:53.526Z,8.23
2019-04-03T17:00:24.211Z,12.55
2019-04-03T17:02:56.013Z,11.85
2019-04-03T17:05:26.713Z,9.78
2019-04-03T17:07:57.172Z,11.40
2019-04-03T17:10:27.490Z,10.70
2019-04-03T17:13:16.533Z,9.13
2019-04-03T17:15:46.662Z,7.90
2019-04-03T17:18:17.239Z,9.05
2019-04-03T17:20:49.646Z,7.47
2019-04-03T17:23:18.769Z,7.42
2019-04-03T17:25:50.720Z,7.62
2019-04-03T17:28:18.929Z,8.15
2019-04-03T17:30:51.345Z,7.15
2019-04-03T17:33:19.250Z,7.55
2019-04-03T17:35:48.669Z,6.67
2019-04-03T17:38:19.606Z,7.30
2019-04-03T17:40:48.906Z,7.55
2019-04-03T17:43:18.096Z,8.43
2019-04-03T17:45:47.381Z,7.42
2019-04-03T17:48:16.694Z,7.10
2019-04-03T17:50:46.171Z,6.65
2019-04-03T17:53:15.752Z,7.12
2019-04-03T17:55:45.537Z,7.35
2019-04-03T17:58:16.878Z,8.70
2019-04-03T18:00:46.262Z,8.50
2019-04-03T18:03:15.675Z,8.88
2019-04-03T18:05:45.120Z,9.10
2019-04-03T18:08:16.327Z,8.78
2019-04-03T18:10:47.083Z,8.28
2019-04-03T18:13:16.423Z,8.13
2019-04-03T18:15:45.975Z,7.72
2019-04-03T18:18:15.226Z,8.30
2019-04-03T18:20:45.204Z,7.60
2019-04-03T18:23:15.731Z,8.80
2019-04-03T18:25:45.007Z,8.08
2019-04-03T18:28:14.367Z,9.63
2019-04-03T18:30:43.645Z,21.68
2019-04-03T18:33:13.065Z,16.25
2019-04-03T18:35:42.413Z,13.48
2019-04-03T18:38:11.753Z,11.57
2019-04-03T18:40:41.068Z,12.78
2019-04-03T18:43:10.587Z,10.50
2019-04-03T18:45:39.874Z,11.25
2019-04-03T18:48:09.392Z,11.18
2019-04-03T18:50:38.763Z,12.05
2019-04-03T18:53:09.826Z,11.57
2019-04-03T18:55:39.326Z,10.53
2019-04-03T18:58:08.489Z,10.35
2019-04-03T19:00:39.316Z,9.98
2019-04-03T19:03:28.123Z,10.65
2019-04-03T19:05:59.810Z,10.75
2019-04-03T19:08:28.443Z,11.05
2019-04-03T19:11:02.656Z,10.45
2019-04-03T19:13:29.677Z,10.95
2019-04-03T19:16:02.036Z,10.48
2019-04-03T19:18:32.042Z,10.82
2019-04-03T19:21:01.474Z,11.48
2019-04-03T19:23:30.755Z,11.50
2019-04-03T19:26:00.495Z,12.50
2019-04-03T19:28:31.173Z,12.47
2019-04-03T19:31:01.651Z,12.78
2019-04-03T19:33:32.806Z,13.50
2019-04-03T19:36:02.159Z,14.05
2019-04-03T19:38:31.632Z,13.58
2019-04-03T19:41:01.987Z,14.95
2019-04-03T19:43:31.752Z,14.28
2019-04-03T19:46:02.212Z,14.40
2019-04-03T19:48:32.682Z,14.80
2019-04-03T19:51:04.933Z,16.27
2019-04-03T19:53:35.954Z,15.32
2019-04-03T19:56:08.148Z,15.28
2019-04-03T19:58:39.202Z,15.15
2019-04-03T20:01:08.848Z,13.93
2019-04-03T20:03:39.013Z,16.97
2019-04-03T20:06:08.400Z,13.40
2019-04-03T20:08:57.193Z,13.22
2019-04-03T20:11:26.568Z,13.93
2019-04-03T20:13:56.620Z,14.30
2019-04-03T20:16:26.097Z,14.45
2019-04-03T20:18:56.898Z,13.90
2019-04-03T20:21:26.387Z,15.08
2019-04-03T20:23:55.721Z,14.13
2019-04-03T20:26:25.125Z,15.10
2019-04-03T20:28:57.441Z,14.90
2019-04-03T20:31:28.347Z,15.13
2019-04-03T20:33:59.407Z,14.40
2019-04-03T20:36:28.773Z,14.40
2019-04-03T20:38:58.398Z,13.30
2019-04-03T20:41:28.365Z,14.50
2019-04-03T20:43:57.742Z,14.25
2019-04-03T20:46:27.036Z,14.45
2019-04-03T20:48:58.463Z,15.80
2019-04-03T20:51:28.348Z,14.90
2019-04-03T20:53:58.874Z,14.83
2019-04-03T20:56:30.548Z,15.70
2019-04-03T20:59:00.015Z,14.70
2019-04-03T21:01:29.276Z,14.30
2019-04-03T21:03:58.580Z,14.47
2019-04-03T21:06:27.854Z,14.23
2019-04-03T21:08:59.421Z,14.13
2019-04-03T21:11:34.928Z,14.58
2019-04-03T21:14:06.723Z,14.50
2019-04-03T21:16:37.124Z,14.78
2019-04-03T21:19:11.248Z,15.20
2019-04-03T21:21:42.214Z,15.68
2019-04-03T21:24:11.477Z,15.38
2019-04-03T21:26:41.077Z,14.95
2019-04-03T21:29:11.580Z,15.55
2019-04-03T21:31:48.233Z,16.48
2019-04-03T21:34:22.382Z,16.30
2019-04-03T21:37:02.595Z,17.12
2019-04-03T21:39:34.085Z,16.45
2019-04-03T21:42:07.376Z,15.15
2019-04-03T21:44:45.434Z,15.50
2019-04-03T21:47:19.059Z,14.60
2019-04-03T21:49:48.404Z,16.48
2019-04-03T21:52:17.754Z,14.35
2019-04-03T21:54:47.067Z,15.43
2019-04-03T21:57:16.276Z,14.68
2019-04-03T21:59:45.709Z,14.90
2019-04-03T22:02:16.201Z,14.83
2019-04-03T22:04:45.949Z,16.15
2019-04-03T22:07:15.184Z,15.43
2019-04-03T22:09:44.570Z,15.78
2019-04-03T22:12:13.818Z,17.12
2019-04-03T22:14:43.485Z,16.42
2019-04-03T22:17:12.752Z,15.48
2019-04-03T22:19:41.984Z,16.95
2019-04-03T22:22:11.162Z,16.42
2019-04-03T22:24:40.312Z,16.05
2019-04-03T22:27:11.314Z,16.05
2019-04-03T22:29:40.481Z,15.68
2019-04-03T22:32:09.737Z,14.68
2019-04-03T22:34:38.910Z,14.68
2019-04-03T22:37:08.216Z,14.47
2019-04-03T22:39:39.033Z,16.02
2019-04-03T22:42:08.339Z,15.05
2019-04-03T22:44:37.558Z,14.58
2019-04-03T22:47:06.749Z,14.23
2019-04-03T22:49:35.918Z,14.07
2019-04-03T22:52:05.180Z,14.20
2019-04-03T22:54:34.498Z,14.23
2019-04-03T22:57:03.752Z,13.53
2019-04-03T22:59:32.932Z,13.48
2019-04-03T23:02:02.152Z,12.80
2019-04-03T23:04:31.412Z,13.72
2019-04-03T23:07:00.699Z,12.78
2019-04-03T23:09:29.959Z,13.48
2019-04-03T23:12:01.039Z,13.35
2019-04-03T23:14:30.243Z,13.28
2019-04-03T23:16:59.484Z,13.20
2019-04-03T23:19:28.718Z,13.62
2019-04-03T23:21:57.888Z,13.85
2019-04-03T23:24:28.901Z,14.38
2019-04-03T23:26:58.085Z,14.00
2019-04-03T23:29:27.277Z,15.23
2019-04-03T23:31:56.484Z,15.10
2019-04-03T23:34:25.652Z,16.50
2019-04-03T23:36:54.885Z,15.43
2019-04-03T23:39:36.545Z,15.30
2019-04-03T23:42:06.871Z,17.15
2019-04-03T23:44:36.608Z,16.97
2019-04-03T23:47:05.770Z,17.80
2019-04-03T23:49:34.997Z,17.52
2019-04-03T23:52:04.171Z,17.17
2019-04-03T23:54:34.041Z,18.35
2019-04-03T23:57:04.090Z,18.07
2019-04-03T23:59:33.474Z,19.37
